If you wish to contribute or participate in the discussions about articles you are invited to join SKYbrary as a registered user

 Actions

Strasbourg Airport

From SKYbrary Wiki

LFST
Airport
ICAO: LFST – IATA: SXB
Summary
Name Strasbourg Airport
Region Europe
Territory France FR.gif
Location , Alsace
Serving Strasbourg
Elevation 153.924 m
505 ft
505 ft153.924 m
Type medium airport
Coordinates 48° 32' 17.95" N, 7° 37' 41.64" E
Runways
Designator Length Width Surface ROPS
5/23 2400 m7,874.016 ft
45 m147.638 ft
ASP yes/yes


METAR
Observation LFST 221830Z AUTO 36004KT CAVOK 22/12 Q1024 NOSIG
Station Strasbourg
Date/Time 22 August 2019 18:30:00
Wind direction 360°
Wind speed 04 kts
Lowest cloud amount clouds and visibility OK
Temperature 22°C
Dew point 12°C
Humidity 53%
QNH 1024 hPa
Weather condition n/a